createdAt,value
2018-05-11T00:02:03.370Z,4.30
2018-05-11T00:04:30.917Z,4.20
2018-05-11T00:06:57.980Z,4.70
2018-05-11T00:09:27.941Z,3.97
2018-05-11T00:11:56.547Z,4.77
2018-05-11T00:14:22.843Z,4.43
2018-05-11T00:16:49.321Z,3.97
2018-05-11T00:19:15.924Z,4.43
2018-05-11T00:21:42.415Z,4.17
2018-05-11T00:24:08.776Z,3.93
2018-05-11T00:26:36.598Z,3.80
2018-05-11T00:29:03.966Z,4.33
2018-05-11T00:31:30.292Z,4.30
2018-05-11T00:33:57.342Z,4.07
2018-05-11T00:36:23.609Z,3.80
2018-05-11T00:38:49.865Z,4.00
2018-05-11T00:41:16.224Z,3.83
2018-05-11T00:43:43.330Z,3.93
2018-05-11T00:46:09.657Z,3.67
2018-05-11T00:48:35.933Z,3.33
2018-05-11T00:51:02.262Z,3.17
2018-05-11T00:53:28.600Z,3.73
2018-05-11T00:55:54.960Z,3.73
2018-05-11T00:58:22.548Z,3.97
2018-05-11T01:00:50.345Z,3.47
2018-05-11T01:03:16.603Z,3.20
2018-05-11T01:05:42.928Z,3.30
2018-05-11T01:08:09.972Z,3.60
2018-05-11T01:10:36.856Z,3.40
2018-05-11T01:13:03.125Z,3.40
2018-05-11T01:15:29.450Z,3.20
2018-05-11T01:18:00.178Z,3.20
2018-05-11T01:20:27.960Z,2.97
2018-05-11T01:22:54.532Z,3.63
2018-05-11T01:25:20.892Z,2.97
2018-05-11T01:27:47.322Z,3.63
2018-05-11T01:30:13.670Z,3.20
2018-05-11T01:32:40.208Z,3.97
2018-05-11T01:35:07.341Z,3.07
2018-05-11T01:37:33.718Z,3.10
2018-05-11T01:40:00.019Z,3.47
2018-05-11T01:42:26.398Z,3.23
2018-05-11T01:44:53.470Z,3.63
2018-05-11T01:47:19.784Z,3.77
2018-05-11T01:49:46.260Z,3.83
2018-05-11T01:52:12.614Z,3.53
2018-05-11T01:54:39.024Z,3.23
2018-05-11T01:57:05.428Z,3.37
2018-05-11T01:59:32.922Z,3.73
2018-05-11T02:01:59.236Z,3.20
2018-05-11T02:04:25.553Z,3.43
2018-05-11T02:06:51.908Z,3.30
2018-05-11T02:09:18.962Z,3.00
2018-05-11T02:11:45.395Z,3.13
2018-05-11T02:14:11.768Z,3.30
2018-05-11T02:16:38.092Z,3.27
2018-05-11T02:19:04.493Z,3.30
2018-05-11T02:21:30.875Z,4.10
2018-05-11T02:23:57.229Z,3.20
2018-05-11T02:26:23.545Z,3.60
2018-05-11T02:28:50.023Z,3.23
2018-05-11T02:31:17.083Z,3.17
2018-05-11T02:33:43.784Z,3.40
2018-05-11T02:36:10.863Z,3.27
2018-05-11T02:38:38.129Z,3.53
2018-05-11T02:41:04.444Z,2.93
2018-05-11T02:43:31.606Z,3.43
2018-05-11T02:45:57.899Z,2.80
2018-05-11T02:48:24.276Z,2.97
2018-05-11T02:50:50.618Z,3.17
2018-05-11T02:53:16.981Z,3.00
2018-05-11T02:55:43.320Z,2.83
2018-05-11T02:58:09.633Z,3.47
2018-05-11T03:00:36.111Z,3.23
2018-05-11T03:03:02.549Z,3.70
2018-05-11T03:05:29.610Z,3.17
2018-05-11T03:07:56.784Z,3.20
2018-05-11T03:10:23.326Z,3.30
2018-05-11T03:12:49.670Z,3.20
2018-05-11T03:15:16.026Z,3.30
2018-05-11T03:17:42.308Z,3.77
2018-05-11T03:20:08.664Z,3.10
2018-05-11T03:22:35.007Z,3.27
2018-05-11T03:25:01.316Z,3.40
2018-05-11T03:27:27.678Z,3.40
2018-05-11T03:29:54.797Z,3.27
2018-05-11T03:32:21.187Z,3.00
2018-05-11T03:34:47.479Z,3.23
2018-05-11T03:37:13.799Z,3.80
2018-05-11T03:39:40.052Z,3.00
2018-05-11T03:42:06.573Z,3.60
2018-05-11T03:44:33.871Z,3.47
2018-05-11T03:47:01.063Z,3.33
2018-05-11T03:49:27.444Z,4.40
2018-05-11T03:51:53.764Z,3.80
2018-05-11T03:54:20.791Z,3.93
2018-05-11T03:56:47.215Z,3.50
2018-05-11T03:59:13.565Z,3.00
2018-05-11T04:01:39.925Z,3.93
2018-05-11T04:04:06.299Z,4.17
2018-05-11T04:06:32.665Z,4.23
2018-05-11T04:08:59.019Z,3.70
2018-05-11T04:11:25.425Z,3.77
2018-05-11T04:13:51.723Z,4.77
2018-05-11T04:16:18.809Z,3.20
2018-05-11T04:18:45.189Z,3.97
2018-05-11T04:21:11.620Z,4.03
2018-05-11T04:23:39.351Z,3.50
2018-05-11T04:26:06.233Z,3.47
2018-05-11T04:28:33.348Z,4.00
2018-05-11T04:30:59.751Z,3.60
2018-05-11T04:33:26.071Z,3.87
2018-05-11T04:35:53.114Z,3.83
2018-05-11T04:38:20.219Z,3.43
2018-05-11T04:40:46.624Z,3.80
2018-05-11T04:43:13.050Z,4.10
2018-05-11T04:45:39.489Z,3.60
2018-05-11T04:48:07.046Z,3.77
2018-05-11T04:50:34.213Z,3.80
2018-05-11T04:53:01.369Z,3.90
2018-05-11T04:55:28.286Z,4.17
2018-05-11T04:57:54.644Z,3.60
2018-05-11T05:00:20.975Z,4.20
2018-05-11T05:02:48.007Z,3.63
2018-05-11T05:05:15.063Z,4.07
2018-05-11T05:07:41.806Z,4.07
2018-05-11T05:10:08.173Z,4.17
2018-05-11T05:12:35.402Z,4.10
2018-05-11T05:15:01.710Z,3.77
2018-05-11T05:17:28.869Z,4.17
2018-05-11T05:19:55.258Z,3.60
2018-05-11T05:22:21.799Z,3.83
2018-05-11T05:24:48.180Z,3.83
2018-05-11T05:27:14.479Z,3.93
2018-05-11T05:29:40.841Z,3.83
2018-05-11T05:32:07.271Z,3.70
2018-05-11T05:34:33.600Z,3.97
2018-05-11T05:37:00.038Z,4.07
2018-05-11T05:39:26.417Z,4.03
2018-05-11T05:41:53.383Z,3.70
2018-05-11T05:44:19.858Z,3.93
2018-05-11T05:46:46.228Z,3.70
2018-05-11T05:49:12.619Z,3.87
2018-05-11T05:51:39.759Z,3.77
2018-05-11T05:54:06.841Z,4.03
2018-05-11T05:56:33.192Z,4.07
2018-05-11T05:58:59.693Z,3.90
2018-05-11T06:01:26.065Z,4.10
2018-05-11T06:03:52.382Z,3.63
2018-05-11T06:06:18.957Z,3.97
2018-05-11T06:08:45.414Z,3.90
2018-05-11T06:11:11.975Z,3.87
2018-05-11T06:13:38.832Z,3.87
2018-05-11T06:16:05.177Z,4.17
2018-05-11T06:18:31.558Z,3.57
2018-05-11T06:20:58.627Z,4.03
2018-05-11T06:23:24.968Z,3.30
2018-05-11T06:25:51.396Z,4.07
2018-05-11T06:28:18.489Z,3.70
2018-05-11T06:30:44.879Z,3.63
2018-05-11T06:33:11.222Z,3.93
2018-05-11T06:35:37.561Z,3.93
2018-05-11T06:38:03.955Z,3.60
2018-05-11T06:40:30.427Z,3.90
2018-05-11T06:42:56.748Z,4.23
2018-05-11T06:45:23.121Z,3.87
2018-05-11T06:47:49.530Z,3.43
2018-05-11T06:50:15.896Z,3.67
2018-05-11T06:52:42.224Z,3.77
2018-05-11T06:55:08.524Z,3.57
2018-05-11T06:57:34.925Z,4.17
2018-05-11T07:00:01.265Z,4.60
2018-05-11T07:02:28.299Z,3.80
2018-05-11T07:04:54.783Z,4.13
2018-05-11T07:07:21.828Z,3.90
2018-05-11T07:09:48.184Z,4.13
2018-05-11T07:12:14.477Z,4.43
2018-05-11T07:14:40.848Z,3.63
2018-05-11T07:17:07.175Z,3.47
2018-05-11T07:19:33.577Z,4.20
2018-05-11T07:22:00.577Z,3.93
2018-05-11T07:24:26.913Z,3.87
2018-05-11T07:26:53.234Z,3.50
2018-05-11T07:29:19.572Z,3.87
2018-05-11T07:31:45.934Z,4.50
2018-05-11T07:34:13.043Z,3.57
2018-05-11T07:36:39.410Z,3.50
2018-05-11T07:39:10.707Z,3.83
2018-05-11T07:41:37.142Z,3.57
2018-05-11T07:44:04.324Z,3.70
2018-05-11T07:46:30.786Z,3.83
2018-05-11T07:48:57.126Z,4.10
2018-05-11T07:51:23.460Z,4.23
2018-05-11T07:53:49.846Z,4.27
2018-05-11T07:56:16.148Z,3.40
2018-05-11T07:58:42.510Z,3.80
2018-05-11T08:01:08.842Z,3.60
2018-05-11T08:03:35.922Z,4.00
2018-05-11T08:06:03.081Z,3.90
2018-05-11T08:08:29.409Z,3.10
2018-05-11T08:10:56.500Z,3.83
2018-05-11T08:13:22.897Z,3.50
2018-05-11T08:15:49.974Z,3.43
2018-05-11T08:18:16.332Z,3.50
2018-05-11T08:20:42.648Z,3.17
2018-05-11T08:23:09.004Z,3.47
2018-05-11T08:25:35.377Z,4.00
2018-05-11T08:28:01.826Z,3.47
2018-05-11T08:30:28.165Z,3.73
2018-05-11T08:32:54.545Z,3.93
2018-05-11T08:35:20.938Z,3.33
2018-05-11T08:37:47.311Z,3.90
2018-05-11T08:40:14.395Z,3.57
2018-05-11T08:42:40.757Z,3.50
2018-05-11T08:45:07.138Z,3.30
2018-05-11T08:47:33.561Z,3.10
2018-05-11T08:49:59.905Z,3.03
2018-05-11T08:52:26.340Z,2.37
2018-05-11T08:54:52.673Z,3.13
2018-05-11T08:57:19.836Z,2.97
2018-05-11T08:59:46.158Z,2.93
2018-05-11T09:02:13.260Z,2.90
2018-05-11T09:04:39.658Z,2.97
2018-05-11T09:07:06.715Z,2.53
2018-05-11T09:09:33.778Z,2.37
2018-05-11T09:12:00.842Z,2.70
2018-05-11T09:14:27.217Z,2.33
2018-05-11T09:16:53.668Z,2.97
2018-05-11T09:19:20.048Z,2.37
2018-05-11T09:21:46.429Z,2.53
2018-05-11T09:24:13.624Z,2.73
2018-05-11T09:26:40.039Z,2.70
2018-05-11T09:29:06.363Z,2.40
2018-05-11T09:31:32.718Z,2.20
2018-05-11T09:33:59.117Z,2.30
2018-05-11T09:36:26.205Z,2.30
2018-05-11T09:38:53.979Z,2.97
2018-05-11T09:41:20.371Z,2.23
2018-05-11T09:43:47.521Z,1.70
2018-05-11T09:46:13.864Z,2.53
2018-05-11T09:48:40.235Z,2.20
2018-05-11T09:51:06.585Z,2.15
2018-05-11T09:53:32.890Z,2.30
2018-05-11T09:55:59.237Z,2.10
2018-05-11T09:58:35.622Z,2.27
2018-05-11T10:01:04.846Z,1.97
2018-05-11T10:03:31.973Z,2.20
2018-05-11T10:05:58.302Z,1.92
2018-05-11T10:08:24.739Z,1.80
2018-05-11T10:10:51.051Z,2.00
2018-05-11T10:13:17.375Z,2.20
2018-05-11T10:15:43.764Z,2.13
2018-05-11T10:18:10.814Z,1.83
2018-05-11T10:20:37.208Z,1.98
2018-05-11T10:23:03.547Z,2.00
2018-05-11T10:25:29.908Z,2.28
2018-05-11T10:27:56.339Z,2.00
2018-05-11T10:30:24.181Z,2.10
2018-05-11T10:32:50.561Z,2.10
2018-05-11T10:35:17.647Z,2.35
2018-05-11T10:37:43.970Z,2.65
2018-05-11T10:40:10.380Z,2.42
2018-05-11T10:42:37.573Z,2.35
2018-05-11T10:45:03.979Z,2.00
2018-05-11T10:47:30.392Z,2.53
2018-05-11T10:49:56.731Z,2.20
2018-05-11T10:52:23.127Z,2.20
2018-05-11T10:54:49.452Z,2.33
2018-05-11T10:57:15.906Z,2.20
2018-05-11T10:59:42.312Z,2.95
2018-05-11T11:02:08.712Z,2.70
2018-05-11T11:04:35.132Z,2.42
2018-05-11T11:07:01.480Z,2.55
2018-05-11T11:09:27.945Z,2.50
2018-05-11T11:11:55.007Z,2.40
2018-05-11T11:14:21.362Z,3.00
2018-05-11T11:16:47.746Z,2.50
2018-05-11T11:19:14.102Z,2.78
2018-05-11T11:21:40.391Z,2.75
2018-05-11T11:24:06.713Z,2.70
2018-05-11T11:26:36.462Z,2.92
2018-05-11T11:29:03.601Z,3.08
2018-05-11T11:31:29.926Z,2.60
2018-05-11T11:33:56.292Z,2.97
2018-05-11T11:36:22.606Z,3.70
2018-05-11T11:44:22.052Z,3.12
2018-05-11T11:46:48.458Z,3.25
2018-05-11T11:49:14.807Z,3.37
2018-05-11T11:51:41.875Z,2.90
2018-05-11T11:54:08.192Z,3.12
2018-05-11T11:56:34.599Z,3.30
2018-05-11T11:59:00.945Z,3.47
2018-05-11T12:01:27.297Z,3.47
2018-05-11T12:03:54.301Z,3.30
2018-05-11T12:06:21.551Z,3.33
2018-05-11T12:08:48.666Z,3.60
2018-05-11T12:11:14.997Z,3.42
2018-05-11T12:13:41.373Z,3.30
2018-05-11T12:16:07.687Z,3.33
2018-05-11T12:18:34.061Z,3.33
2018-05-11T12:21:00.375Z,3.35
2018-05-11T12:23:28.193Z,3.45
2018-05-11T12:25:54.509Z,3.08
2018-05-11T12:28:21.806Z,3.12
2018-05-11T12:30:49.046Z,3.35
2018-05-11T12:33:16.033Z,2.90
2018-05-11T12:35:42.348Z,3.42
2018-05-11T12:38:09.444Z,3.80
2018-05-11T12:40:35.762Z,3.40
2018-05-11T12:43:02.226Z,2.65
2018-05-11T12:45:28.604Z,3.37
2018-05-11T12:47:55.072Z,3.40
2018-05-11T12:50:21.394Z,2.83
2018-05-11T12:52:48.611Z,3.00
2018-05-11T12:55:15.626Z,2.90
2018-05-11T12:57:42.097Z,3.30
2018-05-11T13:00:08.520Z,3.17
2018-05-11T13:02:34.885Z,2.92
2018-05-11T13:05:01.218Z,2.92
2018-05-11T13:07:27.582Z,3.40
2018-05-11T13:09:53.926Z,3.42
2018-05-11T13:12:20.524Z,2.95
2018-05-11T13:14:46.869Z,3.20
2018-05-11T13:17:13.208Z,2.58
2018-05-11T13:19:39.601Z,2.78
2018-05-11T13:22:05.891Z,2.90
2018-05-11T13:24:32.361Z,2.83
2018-05-11T13:26:58.747Z,3.03
2018-05-11T13:29:25.802Z,3.17
2018-05-11T13:31:52.226Z,3.17
2018-05-11T13:34:19.304Z,3.10
2018-05-11T13:36:45.727Z,3.00
2018-05-11T13:39:12.092Z,3.45
2018-05-11T13:41:38.467Z,3.10
2018-05-11T13:44:05.553Z,3.53
2018-05-11T13:46:31.863Z,3.03
2018-05-11T13:48:58.231Z,3.33
2018-05-11T13:51:24.613Z,3.10
2018-05-11T13:53:50.909Z,3.30
2018-05-11T13:56:17.395Z,3.20
2018-05-11T13:58:43.691Z,3.00
2018-05-11T14:01:10.881Z,3.40
2018-05-11T14:03:37.229Z,3.28
2018-05-11T14:06:04.265Z,3.08
2018-05-11T14:08:31.408Z,3.62
2018-05-11T14:10:57.893Z,3.25
2018-05-11T14:13:24.312Z,2.70
2018-05-11T14:15:50.637Z,3.30
2018-05-11T14:18:17.686Z,3.10
2018-05-11T14:20:44.035Z,3.25
2018-05-11T14:23:10.379Z,2.78
2018-05-11T14:25:36.743Z,2.87
2018-05-11T14:28:03.084Z,2.97
2018-05-11T14:30:30.187Z,3.22
2018-05-11T14:32:56.514Z,2.92
2018-05-11T14:35:22.889Z,3.08
2018-05-11T14:37:49.261Z,2.72
2018-05-11T14:40:15.622Z,3.50
2018-05-11T14:42:42.085Z,3.20
2018-05-11T14:45:08.467Z,3.22
2018-05-11T14:47:34.847Z,3.30
2018-05-11T14:50:02.023Z,3.25
2018-05-11T14:52:28.371Z,2.83
2018-05-11T14:54:54.772Z,2.95
2018-05-11T14:57:21.149Z,3.33
2018-05-11T14:59:47.616Z,3.22
2018-05-11T15:02:13.922Z,3.25
2018-05-11T15:04:41.042Z,2.90
2018-05-11T15:07:07.422Z,2.92
2018-05-11T15:09:33.762Z,2.55
2018-05-11T15:12:00.111Z,2.70
2018-05-11T15:14:26.408Z,2.95
2018-05-11T15:16:52.713Z,2.62
2018-05-11T15:19:19.754Z,3.00
2018-05-11T15:21:46.866Z,2.65
2018-05-11T15:24:13.232Z,2.95
2018-05-11T15:26:40.279Z,3.00
2018-05-11T15:29:07.397Z,2.65
2018-05-11T15:31:33.715Z,2.22
2018-05-11T15:34:00.070Z,2.40
2018-05-11T15:36:26.409Z,2.53
2018-05-11T15:38:52.835Z,2.35
2018-05-11T15:41:19.135Z,2.50
2018-05-11T15:43:45.484Z,2.33
2018-05-11T15:46:11.851Z,2.55
2018-05-11T15:48:38.204Z,2.03
2018-05-11T15:51:04.563Z,2.83
2018-05-11T15:53:30.885Z,2.30
2018-05-11T15:55:57.180Z,2.40
2018-05-11T15:58:23.518Z,2.60
2018-05-11T16:00:50.013Z,2.50
2018-05-11T16:03:16.392Z,2.58
2018-05-11T16:05:42.792Z,2.67
2018-05-11T16:08:09.207Z,2.58
2018-05-11T16:10:35.544Z,2.35
2018-05-11T16:13:01.919Z,2.37
2018-05-11T16:15:28.282Z,2.20
2018-05-11T16:17:55.380Z,2.42
2018-05-11T16:20:21.700Z,2.10
2018-05-11T16:22:48.100Z,2.20
2018-05-11T16:25:14.682Z,2.25
2018-05-11T16:27:41.038Z,2.22
2018-05-11T16:30:07.503Z,2.33
2018-05-11T16:32:34.599Z,2.25
2018-05-11T16:35:00.944Z,1.85
2018-05-11T16:37:27.352Z,2.05
2018-05-11T16:39:53.744Z,2.22
2018-05-11T16:42:20.214Z,2.20
2018-05-11T16:44:46.592Z,2.42
2018-05-11T16:47:12.914Z,2.40
2018-05-11T16:49:39.402Z,1.80
2018-05-11T16:52:05.879Z,2.47
2018-05-11T16:54:32.181Z,1.90
2018-05-11T16:56:59.437Z,2.03
2018-05-11T16:59:25.899Z,2.47
2018-05-11T17:01:52.305Z,2.30
2018-05-11T17:04:18.706Z,2.10
2018-05-11T17:06:45.121Z,2.05
2018-05-11T17:09:11.441Z,2.20
2018-05-11T17:11:37.763Z,2.40
2018-05-11T17:14:04.084Z,2.37
2018-05-11T17:16:30.494Z,2.70
2018-05-11T17:18:56.787Z,2.33
2018-05-11T17:21:23.200Z,2.30
2018-05-11T17:23:49.644Z,2.05
2018-05-11T17:26:16.227Z,2.25
2018-05-11T17:28:42.652Z,2.00
2018-05-11T17:31:09.064Z,1.85
2018-05-11T17:33:36.210Z,2.05
2018-05-11T17:36:02.594Z,2.12
2018-05-11T17:38:28.913Z,1.90
2018-05-11T17:40:55.301Z,2.15
2018-05-11T17:43:21.693Z,1.92
2018-05-11T17:45:49.519Z,1.75
2018-05-11T17:48:15.989Z,2.08
2018-05-11T17:50:42.351Z,2.12
2018-05-11T17:53:08.735Z,2.10
2018-05-11T17:55:35.835Z,2.28
2018-05-11T17:58:02.309Z,1.90
2018-05-11T18:00:28.656Z,2.12
2018-05-11T18:02:55.619Z,1.95
2018-05-11T18:05:22.001Z,2.20
2018-05-11T18:07:48.363Z,2.17
2018-05-11T18:10:14.754Z,2.00
2018-05-11T18:12:41.832Z,1.50
2018-05-11T18:15:08.988Z,1.90
2018-05-11T18:17:35.422Z,2.00
2018-05-11T18:20:01.794Z,2.00
2018-05-11T18:22:28.209Z,1.98
2018-05-11T18:24:54.634Z,1.60
2018-05-11T18:27:20.974Z,2.00
2018-05-11T18:29:47.334Z,1.95
2018-05-11T18:32:13.747Z,2.03
2018-05-11T18:34:40.102Z,1.95
2018-05-11T18:37:06.539Z,1.77
2018-05-11T18:39:32.869Z,2.05
2018-05-11T18:41:59.328Z,2.10
2018-05-11T18:44:25.650Z,2.20
2018-05-11T18:46:52.140Z,2.03
2018-05-11T18:49:18.507Z,1.90
2018-05-11T18:51:44.885Z,2.72
2018-05-11T18:54:12.271Z,2.00
2018-05-11T18:56:38.529Z,2.05
2018-05-11T18:59:08.061Z,1.95
2018-05-11T19:01:34.508Z,1.87
2018-05-11T19:04:00.982Z,2.05
2018-05-11T19:06:27.324Z,1.87
2018-05-11T19:08:53.804Z,2.10
2018-05-11T19:11:20.020Z,2.17
2018-05-11T19:13:46.467Z,2.10
2018-05-11T19:16:12.817Z,1.95
2018-05-11T19:18:39.201Z,2.00
2018-05-11T19:21:05.590Z,1.98
2018-05-11T19:23:31.987Z,1.80
2018-05-11T19:25:58.498Z,1.75
2018-05-11T19:28:24.818Z,1.70
2018-05-11T19:30:51.247Z,1.92
2018-05-11T19:33:18.401Z,1.83
2018-05-11T19:35:45.553Z,1.92
2018-05-11T19:38:11.917Z,1.87
2018-05-11T19:40:38.239Z,2.17
2018-05-11T19:43:05.417Z,2.05
2018-05-11T19:45:31.855Z,1.77
2018-05-11T19:47:58.356Z,2.00
2018-05-11T19:50:25.711Z,2.00
2018-05-11T19:52:53.475Z,1.80
2018-05-11T19:55:19.781Z,1.92
2018-05-11T19:57:46.209Z,1.87
2018-05-11T20:00:12.980Z,1.87
2018-05-11T20:02:40.310Z,1.35
2018-05-11T20:05:06.705Z,1.77
2018-05-11T20:07:33.200Z,2.00
2018-05-11T20:09:59.646Z,1.55
2018-05-11T20:12:26.708Z,1.87
2018-05-11T20:14:53.172Z,1.55
2018-05-11T20:17:19.605Z,1.95
2018-05-11T20:19:46.004Z,1.48
2018-05-11T20:22:12.387Z,1.60
2018-05-11T20:24:39.239Z,2.00
2018-05-11T20:27:05.553Z,1.80
2018-05-11T20:29:31.866Z,2.12
2018-05-11T20:31:58.276Z,1.90
2018-05-11T20:34:25.349Z,2.20
2018-05-11T20:36:51.750Z,2.05
2018-05-11T20:39:18.805Z,1.83
2018-05-11T20:41:45.941Z,1.80
2018-05-11T20:44:13.198Z,1.75
2018-05-11T20:46:39.682Z,1.90
2018-05-11T20:49:06.221Z,1.73
2018-05-11T20:51:33.262Z,2.00
2018-05-11T20:53:59.702Z,1.90
2018-05-11T20:56:26.143Z,2.05
2018-05-11T20:58:52.556Z,2.25
2018-05-11T21:01:18.929Z,2.03
2018-05-11T21:03:45.282Z,1.80
2018-05-11T21:06:11.617Z,1.87
2018-05-11T21:08:37.937Z,1.98
2018-05-11T21:11:04.300Z,1.95
2018-05-11T21:13:31.428Z,2.00
2018-05-11T21:15:57.776Z,2.42
2018-05-11T21:18:24.760Z,2.15
2018-05-11T21:20:51.085Z,2.50
2018-05-11T21:23:17.461Z,2.20
2018-05-11T21:25:43.793Z,1.92
2018-05-11T21:28:11.056Z,2.00
2018-05-11T21:30:38.089Z,1.85
2018-05-11T21:33:04.399Z,1.77
2018-05-11T21:35:30.722Z,1.98
2018-05-11T21:37:57.103Z,1.85
2018-05-11T21:40:23.518Z,2.30
2018-05-11T21:42:50.045Z,1.98
2018-05-11T21:45:16.506Z,2.05
2018-05-11T21:47:43.617Z,2.30
2018-05-11T21:50:10.721Z,2.57
2018-05-11T21:52:37.110Z,2.43
2018-05-11T21:55:03.397Z,2.05
2018-05-11T21:57:29.829Z,2.37
2018-05-11T21:59:57.142Z,2.50
2018-05-11T22:02:24.511Z,2.22
2018-05-11T22:04:50.869Z,2.42
2018-05-11T22:07:17.203Z,2.30
2018-05-11T22:09:44.088Z,2.35
2018-05-11T22:12:10.453Z,2.37
2018-05-11T22:14:38.530Z,2.70
2018-05-11T22:17:07.117Z,2.33
2018-05-11T22:19:34.137Z,2.55
2018-05-11T22:22:00.685Z,2.47
2018-05-11T22:24:27.102Z,3.15
2018-05-11T22:26:53.512Z,2.60
2018-05-11T22:29:20.577Z,2.40
2018-05-11T22:31:47.590Z,2.73
2018-05-11T22:34:13.906Z,2.30
2018-05-11T22:36:40.277Z,2.47
2018-05-11T22:39:06.746Z,2.37
2018-05-11T22:41:33.067Z,2.72
2018-05-11T22:44:00.229Z,2.87
2018-05-11T22:46:26.572Z,2.40
2018-05-11T22:48:52.905Z,2.70
2018-05-11T22:51:19.223Z,2.43
2018-05-11T22:53:45.548Z,3.10
2018-05-11T22:56:11.911Z,2.70
2018-05-11T22:58:38.388Z,2.63
2018-05-11T23:01:04.877Z,2.63
2018-05-11T23:03:31.211Z,2.73
2018-05-11T23:05:57.533Z,3.17
2018-05-11T23:08:24.004Z,2.90
2018-05-11T23:10:51.164Z,2.70
2018-05-11T23:13:17.539Z,3.58
2018-05-11T23:15:44.191Z,3.00
2018-05-11T23:18:10.554Z,3.05
2018-05-11T23:20:37.058Z,2.60
2018-05-11T23:23:03.346Z,3.30
2018-05-11T23:25:29.677Z,2.63
2018-05-11T23:27:56.089Z,3.03
2018-05-11T23:30:22.558Z,3.03
2018-05-11T23:32:48.914Z,2.87
2018-05-11T23:35:15.250Z,2.70
2018-05-11T23:37:42.406Z,2.73
2018-05-11T23:40:08.861Z,3.13
2018-05-11T23:42:35.220Z,2.80
2018-05-11T23:45:01.528Z,2.87
2018-05-11T23:47:29.384Z,2.97
2018-05-11T23:49:56.562Z,3.20
2018-05-11T23:52:22.890Z,2.80
2018-05-11T23:54:49.276Z,2.70
2018-05-11T23:57:16.343Z,2.93
2018-05-11T23:59:43.432Z,2.77
